createdAt,value
2023-06-27T00:01:41.019Z,11.93
2023-06-27T00:04:08.275Z,12.60
2023-06-27T00:06:38.294Z,12.43
2023-06-27T00:09:07.171Z,12.35
2023-06-27T00:11:33.793Z,11.82
2023-06-27T00:14:00.318Z,13.45
2023-06-27T00:16:33.565Z,12.40
2023-06-27T00:19:04.790Z,12.05
2023-06-27T00:21:32.671Z,12.90
2023-06-27T00:24:02.895Z,11.63
2023-06-27T00:28:56.831Z,11.90
2023-06-27T00:31:23.573Z,11.93
2023-06-27T00:33:50.204Z,12.27
2023-06-27T00:36:16.686Z,12.35
2023-06-27T00:38:43.183Z,12.10
2023-06-27T00:41:09.700Z,12.00
2023-06-27T00:43:36.453Z,12.70
2023-06-27T00:46:07.909Z,11.98
2023-06-27T00:48:35.190Z,13.15
2023-06-27T00:51:02.439Z,12.18
2023-06-27T00:53:29.360Z,11.25
2023-06-27T00:55:56.272Z,11.07
2023-06-27T00:58:23.066Z,12.20
2023-06-27T01:00:49.506Z,12.05
2023-06-27T01:03:16.472Z,11.50
2023-06-27T01:05:44.013Z,11.82
2023-06-27T01:08:19.286Z,12.05
2023-06-27T01:10:53.246Z,11.57
2023-06-27T01:13:28.642Z,11.63
2023-06-27T01:15:55.885Z,11.40
2023-06-27T01:18:24.465Z,11.55
2023-06-27T01:20:51.473Z,11.35
2023-06-27T01:23:24.542Z,11.35
2023-06-27T01:25:54.139Z,11.90
2023-06-27T01:28:20.673Z,11.75
2023-06-27T01:30:47.226Z,12.10
2023-06-27T01:33:28.678Z,12.70
2023-06-27T01:36:05.732Z,12.32
2023-06-27T01:38:45.387Z,12.48
2023-06-27T01:41:18.043Z,12.32
2023-06-27T01:43:46.572Z,12.32
2023-06-27T01:46:13.851Z,11.55
2023-06-27T01:48:42.035Z,11.90
2023-06-27T01:51:09.994Z,11.82
2023-06-27T01:53:40.158Z,11.65
2023-06-27T01:56:07.970Z,13.13
2023-06-27T01:58:34.677Z,12.40
2023-06-27T02:01:01.179Z,12.50
2023-06-27T02:03:27.814Z,12.13
2023-06-27T02:05:54.314Z,12.07
2023-06-27T02:08:21.107Z,12.35
2023-06-27T02:10:47.581Z,12.65
2023-06-27T02:13:14.010Z,12.00
2023-06-27T02:15:41.373Z,12.45
2023-06-27T02:18:08.135Z,11.93
2023-06-27T02:20:34.631Z,12.68
2023-06-27T02:23:01.113Z,12.68
2023-06-27T02:25:33.385Z,12.35
2023-06-27T02:27:59.854Z,12.65
2023-06-27T02:30:26.377Z,12.40
2023-06-27T02:32:52.945Z,12.75
2023-06-27T02:35:19.632Z,12.48
2023-06-27T02:37:46.105Z,12.48
2023-06-27T02:40:13.230Z,12.82
2023-06-27T02:42:39.686Z,12.63
2023-06-27T02:45:06.797Z,13.20
2023-06-27T02:47:33.488Z,13.57
2023-06-27T02:50:00.452Z,13.82
2023-06-27T02:52:26.990Z,14.60
2023-06-27T02:54:53.578Z,14.00
2023-06-27T02:57:21.289Z,13.75
2023-06-27T02:59:47.727Z,13.13
2023-06-27T03:02:14.171Z,13.32
2023-06-27T03:04:40.741Z,13.45
2023-06-27T03:07:07.455Z,13.57
2023-06-27T03:09:36.401Z,13.73
2023-06-27T03:12:02.869Z,13.73
2023-06-27T03:14:30.124Z,14.30
2023-06-27T03:16:56.631Z,13.07
2023-06-27T03:19:38.323Z,12.68
2023-06-27T03:22:09.626Z,12.73
2023-06-27T03:24:36.291Z,13.75
2023-06-27T03:27:02.816Z,12.80
2023-06-27T03:29:29.260Z,13.50
2023-06-27T03:31:58.518Z,13.43
2023-06-27T03:34:25.449Z,11.88
2023-06-27T03:36:52.369Z,12.40
2023-06-27T03:39:18.895Z,12.45
2023-06-27T03:41:45.677Z,11.98
2023-06-27T03:44:12.264Z,13.10
2023-06-27T03:46:38.752Z,13.40
2023-06-27T03:49:05.292Z,11.50
2023-06-27T03:51:34.049Z,12.98
2023-06-27T03:54:03.254Z,12.13
2023-06-27T03:56:29.840Z,11.23
2023-06-27T03:58:56.244Z,11.48
2023-06-27T04:01:22.765Z,11.30
2023-06-27T04:03:49.381Z,11.57
2023-06-27T04:06:15.969Z,10.95
2023-06-27T04:08:42.502Z,10.68
2023-06-27T04:11:09.028Z,11.02
2023-06-27T04:13:35.526Z,11.05
2023-06-27T04:16:01.989Z,11.35
2023-06-27T04:18:28.487Z,10.88
2023-06-27T04:20:54.990Z,10.75
2023-06-27T04:23:21.447Z,10.82
2023-06-27T04:26:08.680Z,10.88
2023-06-27T04:28:36.076Z,11.10
2023-06-27T04:31:03.237Z,10.60
2023-06-27T04:33:30.565Z,10.90
2023-06-27T04:36:05.356Z,10.40
2023-06-27T04:38:38.967Z,10.23
2023-06-27T04:41:06.324Z,10.25
2023-06-27T04:43:34.897Z,10.18
2023-06-27T04:46:03.162Z,10.30
2023-06-27T04:48:29.970Z,9.77
2023-06-27T04:50:57.667Z,18.42
2023-06-27T04:53:27.298Z,29.58
2023-06-27T04:55:54.662Z,29.45
2023-06-27T04:58:22.202Z,28.38
2023-06-27T05:00:49.493Z,29.13
2023-06-27T05:03:16.643Z,28.80
2023-06-27T05:05:43.810Z,28.40
2023-06-27T05:08:11.817Z,28.45
2023-06-27T05:10:38.630Z,28.95
2023-06-27T05:13:05.223Z,28.92
2023-06-27T05:15:31.843Z,29.67
2023-06-27T05:18:07.582Z,29.63
2023-06-27T05:20:34.146Z,31.17
2023-06-27T05:23:02.268Z,29.98
2023-06-27T05:25:30.372Z,30.27
2023-06-27T05:27:56.940Z,31.23
2023-06-27T05:30:23.445Z,31.70
2023-06-27T05:32:49.986Z,32.10
2023-06-27T05:35:16.544Z,32.22
2023-06-27T05:37:43.017Z,32.97
2023-06-27T05:40:10.274Z,32.70
2023-06-27T05:42:39.798Z,32.92
2023-06-27T05:45:06.774Z,34.55
2023-06-27T05:47:33.423Z,33.08
2023-06-27T05:50:00.189Z,33.67
2023-06-27T05:52:26.852Z,32.58
2023-06-27T05:54:53.428Z,33.88
2023-06-27T05:57:19.995Z,33.40
2023-06-27T05:59:46.619Z,32.78
2023-06-27T06:02:13.298Z,31.73
2023-06-27T06:04:39.866Z,32.83
2023-06-27T06:07:06.495Z,32.78
2023-06-27T06:09:33.358Z,32.60
2023-06-27T06:11:59.890Z,30.85
2023-06-27T06:14:26.466Z,31.35
2023-06-27T06:16:52.946Z,31.13
2023-06-27T06:19:20.036Z,31.00
2023-06-27T06:21:46.693Z,30.55
2023-06-27T06:24:13.863Z,28.85
2023-06-27T06:26:40.395Z,29.45
2023-06-27T06:29:07.621Z,28.85
2023-06-27T06:31:34.205Z,27.33
2023-06-27T06:34:00.794Z,26.92
2023-06-27T06:36:28.329Z,26.48
2023-06-27T06:38:55.192Z,25.98
2023-06-27T06:41:22.151Z,25.60
2023-06-27T06:43:48.669Z,25.17
2023-06-27T06:46:15.415Z,24.17
2023-06-27T06:48:42.006Z,24.27
2023-06-27T06:51:09.365Z,22.30
2023-06-27T06:53:36.077Z,21.50
2023-06-27T06:56:02.534Z,19.63
2023-06-27T06:58:29.106Z,19.60
2023-06-27T07:00:55.949Z,18.38
2023-06-27T07:03:22.395Z,16.95
2023-06-27T07:05:48.843Z,16.15
2023-06-27T07:08:15.360Z,15.93
2023-06-27T07:10:41.874Z,15.10
2023-06-27T07:13:08.423Z,15.20
2023-06-27T07:15:34.928Z,14.02
2023-06-27T07:18:01.492Z,13.57
2023-06-27T07:20:28.208Z,13.02
2023-06-27T07:22:54.753Z,13.25
2023-06-27T07:25:21.394Z,12.82
2023-06-27T07:27:47.874Z,13.40
2023-06-27T07:30:14.467Z,13.27
2023-06-27T07:32:40.975Z,13.43
2023-06-27T07:35:07.961Z,13.10
2023-06-27T07:37:34.418Z,15.80
2023-06-27T07:40:00.863Z,25.73
2023-06-27T07:42:27.357Z,28.58
2023-06-27T07:44:54.477Z,28.77
2023-06-27T07:47:21.071Z,30.17
2023-06-27T07:49:47.596Z,29.88
2023-06-27T07:52:14.119Z,29.38
2023-06-27T07:54:40.626Z,30.30
2023-06-27T07:57:07.494Z,30.30
2023-06-27T07:59:34.149Z,30.67
2023-06-27T08:02:00.853Z,30.45
2023-06-27T08:04:27.576Z,30.58
2023-06-27T08:06:54.503Z,29.65
2023-06-27T08:09:23.997Z,29.98
2023-06-27T08:11:51.363Z,29.02
2023-06-27T08:14:18.340Z,28.63
2023-06-27T08:16:44.852Z,32.67
2023-06-27T08:19:12.405Z,30.13
2023-06-27T08:21:38.900Z,30.25
2023-06-27T08:24:06.357Z,30.15
2023-06-27T08:26:32.861Z,29.88
2023-06-27T08:28:59.298Z,30.27
2023-06-27T08:31:25.806Z,30.58
2023-06-27T08:33:52.407Z,30.65
2023-06-27T08:36:18.859Z,29.77
2023-06-27T08:38:45.341Z,29.38
2023-06-27T08:41:12.492Z,29.45
2023-06-27T08:43:40.362Z,29.00
2023-06-27T08:46:09.594Z,29.00
2023-06-27T08:48:40.814Z,31.00
2023-06-27T08:51:08.235Z,28.60
2023-06-27T08:53:37.671Z,31.70
2023-06-27T08:56:09.601Z,32.65
2023-06-27T08:58:53.315Z,29.10
2023-06-27T09:01:22.957Z,27.50
2023-06-27T09:03:49.555Z,26.02
2023-06-27T09:06:18.102Z,25.55
2023-06-27T09:08:44.961Z,24.50
2023-06-27T09:11:11.681Z,22.67
2023-06-27T09:13:38.761Z,20.23
2023-06-27T09:16:06.750Z,17.27
2023-06-27T09:18:36.397Z,17.70
2023-06-27T09:21:03.050Z,16.67
2023-06-27T09:23:31.842Z,14.65
2023-06-27T09:26:12.891Z,14.85
2023-06-27T09:28:52.804Z,15.95
2023-06-27T09:31:20.952Z,16.60
2023-06-27T09:33:50.157Z,15.23
2023-06-27T09:39:05.288Z,15.43
2023-06-27T09:41:51.088Z,15.70
2023-06-27T09:44:23.066Z,13.80
2023-06-27T09:46:51.371Z,14.88
2023-06-27T09:49:18.469Z,12.07
2023-06-27T09:51:50.764Z,14.32
2023-06-27T09:54:27.118Z,15.38
2023-06-27T09:56:54.256Z,13.40
2023-06-27T09:59:24.728Z,13.85
2023-06-27T10:01:52.785Z,13.15
2023-06-27T10:04:19.799Z,13.45
2023-06-27T10:06:46.705Z,14.18
2023-06-27T10:09:13.950Z,14.15
2023-06-27T10:11:40.818Z,12.65
2023-06-27T10:14:07.924Z,13.10
2023-06-27T10:16:35.640Z,13.00
2023-06-27T10:19:03.112Z,12.80
2023-06-27T10:21:30.797Z,12.85
2023-06-27T10:24:00.162Z,12.95
2023-06-27T10:26:27.998Z,12.68
2023-06-27T10:28:55.551Z,11.93
2023-06-27T10:31:46.392Z,12.35
2023-06-27T10:34:25.698Z,12.93
2023-06-27T10:36:55.263Z,11.37
2023-06-27T10:39:26.764Z,11.90
2023-06-27T10:42:16.330Z,10.38
2023-06-27T10:44:55.129Z,10.93
2023-06-27T10:47:21.770Z,11.10
2023-06-27T10:49:49.697Z,11.32
2023-06-27T10:52:24.211Z,10.45
2023-06-27T10:55:16.153Z,10.32
2023-06-27T11:01:01.723Z,10.32
2023-06-27T11:03:33.927Z,12.27
2023-06-27T11:06:00.818Z,11.00
2023-06-27T11:08:29.581Z,12.20
2023-06-27T11:11:09.886Z,14.23
2023-06-27T11:13:45.065Z,12.38
2023-06-27T11:16:13.307Z,11.77
2023-06-27T11:18:40.800Z,12.38
2023-06-27T11:21:07.292Z,11.38
2023-06-27T11:23:35.018Z,11.20
2023-06-27T11:26:01.662Z,10.85
2023-06-27T11:28:28.132Z,12.32
2023-06-27T11:31:01.733Z,11.18
2023-06-27T11:33:28.832Z,11.07
2023-06-27T11:36:01.474Z,10.45
2023-06-27T11:38:28.998Z,10.70
2023-06-27T11:40:55.524Z,10.52
2023-06-27T11:43:22.013Z,10.50
2023-06-27T11:45:50.438Z,11.13
2023-06-27T11:48:17.275Z,11.07
2023-06-27T11:51:07.904Z,12.30
2023-06-27T11:53:36.856Z,12.00
2023-06-27T11:56:20.640Z,11.70
2023-06-27T11:58:49.203Z,12.73
2023-06-27T12:01:18.042Z,11.45
2023-06-27T12:03:50.322Z,11.90
2023-06-27T12:06:28.072Z,11.55
2023-06-27T12:08:55.334Z,11.27
2023-06-27T12:11:35.357Z,12.30
2023-06-27T12:14:03.215Z,10.27
2023-06-27T12:16:33.955Z,15.55
2023-06-27T12:19:05.450Z,20.05
2023-06-27T12:21:32.432Z,17.90
2023-06-27T12:23:58.931Z,17.08
2023-06-27T12:26:25.468Z,18.05
2023-06-27T12:28:59.509Z,18.15
2023-06-27T12:31:26.781Z,18.33
2023-06-27T12:33:54.121Z,21.38
2023-06-27T12:36:25.457Z,18.73
2023-06-27T12:38:53.116Z,18.38
2023-06-27T12:41:20.875Z,16.20
2023-06-27T12:43:48.020Z,13.60
2023-06-27T12:46:15.199Z,14.50
2023-06-27T12:48:42.908Z,14.20
2023-06-27T12:51:09.632Z,12.98
2023-06-27T12:53:36.436Z,12.57
2023-06-27T12:56:05.848Z,12.80
2023-06-27T12:58:33.283Z,11.55
2023-06-27T13:01:01.590Z,13.70
2023-06-27T13:03:29.136Z,13.40
2023-06-27T13:05:57.185Z,13.90
2023-06-27T13:08:23.829Z,12.70
2023-06-27T13:10:50.819Z,14.15
2023-06-27T13:13:20.343Z,11.18
2023-06-27T13:15:59.778Z,13.30
2023-06-27T13:18:31.637Z,13.38
2023-06-27T13:20:58.218Z,13.18
2023-06-27T13:23:24.665Z,11.68
2023-06-27T13:25:51.124Z,11.95
2023-06-27T13:28:17.557Z,11.68
2023-06-27T13:30:44.496Z,11.68
2023-06-27T13:33:11.675Z,15.15
2023-06-27T13:35:38.192Z,11.50
2023-06-27T13:38:05.620Z,11.40
2023-06-27T13:40:32.065Z,11.52
2023-06-27T13:42:58.634Z,10.90
2023-06-27T13:45:25.207Z,11.80
2023-06-27T13:47:52.340Z,11.90
2023-06-27T13:50:19.734Z,12.70
2023-06-27T13:52:46.224Z,11.40
2023-06-27T13:55:12.833Z,10.55
2023-06-27T13:57:39.322Z,10.90
2023-06-27T14:00:06.935Z,11.82
2023-06-27T14:02:34.474Z,12.07
2023-06-27T14:05:01.361Z,12.57
2023-06-27T14:07:28.010Z,13.05
2023-06-27T14:09:54.546Z,11.40
2023-06-27T14:12:21.688Z,11.23
2023-06-27T14:14:50.704Z,11.35
2023-06-27T14:17:17.424Z,11.13
2023-06-27T14:19:44.700Z,11.30
2023-06-27T14:22:12.363Z,12.82
2023-06-27T14:24:38.857Z,12.68
2023-06-27T14:27:05.680Z,11.90
2023-06-27T14:29:32.149Z,12.13
2023-06-27T14:31:58.631Z,11.57
2023-06-27T14:34:25.141Z,11.77
2023-06-27T14:36:53.183Z,13.25
2023-06-27T14:39:22.958Z,13.93
2023-06-27T14:41:49.550Z,13.93
2023-06-27T14:44:16.039Z,14.15
2023-06-27T14:46:42.597Z,12.23
2023-06-27T14:49:09.424Z,12.27
2023-06-27T14:51:36.846Z,11.77
2023-06-27T14:54:04.736Z,12.00
2023-06-27T14:56:31.395Z,13.52
2023-06-27T14:58:57.928Z,12.27
2023-06-27T15:01:26.376Z,12.55
2023-06-27T15:03:53.704Z,12.18
2023-06-27T15:06:21.572Z,11.50
2023-06-27T15:08:49.928Z,12.68
2023-06-27T15:11:16.462Z,14.15
2023-06-27T15:13:42.965Z,12.05
2023-06-27T15:16:09.794Z,11.88
2023-06-27T15:18:36.718Z,11.38
2023-06-27T15:21:03.451Z,11.93
2023-06-27T15:23:38.051Z,12.55
2023-06-27T15:26:07.329Z,13.32
2023-06-27T15:28:34.156Z,12.30
2023-06-27T15:31:00.701Z,12.70
2023-06-27T15:33:27.334Z,12.63
2023-06-27T15:35:53.770Z,12.77
2023-06-27T15:38:20.284Z,12.93
2023-06-27T15:40:49.841Z,12.55
2023-06-27T15:43:16.409Z,12.55
2023-06-27T15:45:43.063Z,12.90
2023-06-27T15:48:09.624Z,13.32
2023-06-27T15:50:36.174Z,12.50
2023-06-27T15:53:02.756Z,11.95
2023-06-27T15:55:29.306Z,15.00
2023-06-27T15:57:55.885Z,14.98
2023-06-27T16:00:22.586Z,12.50
2023-06-27T16:02:49.331Z,12.07
2023-06-27T16:05:16.326Z,11.77
2023-06-27T16:07:43.649Z,11.90
2023-06-27T16:10:11.133Z,12.73
2023-06-27T16:12:37.885Z,13.00
2023-06-27T16:15:04.856Z,12.20
2023-06-27T16:17:31.400Z,11.75
2023-06-27T16:19:58.095Z,11.70
2023-06-27T16:22:24.598Z,12.07
2023-06-27T16:24:51.134Z,12.20
2023-06-27T16:27:17.628Z,11.80
2023-06-27T16:29:44.188Z,11.80
2023-06-27T16:32:10.632Z,12.88
2023-06-27T16:34:40.636Z,13.32
2023-06-27T16:37:08.199Z,12.90
2023-06-27T16:39:35.553Z,12.80
2023-06-27T16:42:02.087Z,12.57
2023-06-27T16:44:28.595Z,12.38
2023-06-27T16:46:55.519Z,12.00
2023-06-27T16:49:22.095Z,11.57
2023-06-27T16:51:48.575Z,11.60
2023-06-27T16:54:16.146Z,11.60
2023-06-27T16:56:42.591Z,11.50
2023-06-27T16:59:09.051Z,11.18
2023-06-27T17:01:35.661Z,13.73
2023-06-27T17:04:02.152Z,11.98
2023-06-27T17:06:28.683Z,12.38
2023-06-27T17:08:55.201Z,11.85
2023-06-27T17:11:22.168Z,12.05
2023-06-27T17:13:49.493Z,12.55
2023-06-27T17:16:16.118Z,12.55
2023-06-27T17:18:42.584Z,12.60
2023-06-27T17:21:09.141Z,12.18
2023-06-27T17:23:37.202Z,11.55
2023-06-27T17:26:03.847Z,12.13
2023-06-27T17:28:30.545Z,13.02
2023-06-27T17:30:57.335Z,12.13
2023-06-27T17:33:26.528Z,12.48
2023-06-27T17:35:53.167Z,12.47
2023-06-27T17:38:19.664Z,11.95
2023-06-27T17:40:46.134Z,12.00
2023-06-27T17:43:12.629Z,12.32
2023-06-27T17:45:39.389Z,12.65
2023-06-27T17:48:06.522Z,12.73
2023-06-27T17:50:33.064Z,12.35
2023-06-27T17:53:02.826Z,11.55
2023-06-27T17:55:29.358Z,11.40
2023-06-27T17:57:55.859Z,11.65
2023-06-27T18:00:22.808Z,11.82
2023-06-27T18:02:49.601Z,12.32
2023-06-27T18:05:16.216Z,12.25
2023-06-27T18:07:42.768Z,12.40
2023-06-27T18:10:09.742Z,12.40
2023-06-27T18:12:36.311Z,11.88
2023-06-27T18:15:04.248Z,12.73
2023-06-27T18:17:30.920Z,12.00
2023-06-27T18:19:57.601Z,13.70
2023-06-27T18:22:26.426Z,12.68
2023-06-27T18:24:53.686Z,12.40
2023-06-27T18:27:20.605Z,12.77
2023-06-27T18:29:49.108Z,12.18
2023-06-27T18:32:16.170Z,13.02
2023-06-27T18:34:42.706Z,12.18
2023-06-27T18:37:09.739Z,13.00
2023-06-27T18:39:36.880Z,12.88
2023-06-27T18:42:03.996Z,12.23
2023-06-27T18:44:31.467Z,11.38
2023-06-27T18:46:58.126Z,11.43
2023-06-27T18:49:24.601Z,12.90
2023-06-27T18:51:51.140Z,11.30
2023-06-27T18:54:17.673Z,12.70
2023-06-27T18:56:44.249Z,11.60
2023-06-27T18:59:10.771Z,11.55
2023-06-27T19:01:37.552Z,10.43
2023-06-27T19:04:04.309Z,10.63
2023-06-27T19:06:31.358Z,11.23
2023-06-27T19:08:58.065Z,11.27
2023-06-27T19:11:28.534Z,11.45
2023-06-27T19:13:56.627Z,11.15
2023-06-27T19:16:23.231Z,10.63
2023-06-27T19:18:50.205Z,11.27
2023-06-27T19:21:18.258Z,10.32
2023-06-27T19:23:44.768Z,10.93
2023-06-27T19:26:11.644Z,11.18
2023-06-27T19:28:38.182Z,10.60
2023-06-27T19:31:04.812Z,10.73
2023-06-27T19:33:31.377Z,11.43
2023-06-27T19:35:59.487Z,11.20
2023-06-27T19:38:26.125Z,10.80
2023-06-27T19:40:53.260Z,11.40
2023-06-27T19:43:19.906Z,11.90
2023-06-27T19:45:46.513Z,11.27
2023-06-27T19:48:13.000Z,11.00
2023-06-27T19:50:40.063Z,11.05
2023-06-27T19:53:06.974Z,11.18
2023-06-27T19:55:33.573Z,10.27
2023-06-27T19:58:00.120Z,9.55
2023-06-27T20:00:26.727Z,10.10
2023-06-27T20:02:53.279Z,8.95
2023-06-27T20:05:19.894Z,8.80
2023-06-27T20:07:48.286Z,10.60
2023-06-27T20:10:16.120Z,10.40
2023-06-27T20:12:43.979Z,9.82
2023-06-27T20:15:11.040Z,9.15
2023-06-27T20:17:37.829Z,9.30
2023-06-27T20:20:05.280Z,9.77
2023-06-27T20:22:31.738Z,10.68
2023-06-27T20:24:58.444Z,9.98
2023-06-27T20:27:25.572Z,9.88
2023-06-27T20:29:56.334Z,9.27
2023-06-27T20:32:22.955Z,8.90
2023-06-27T20:34:49.594Z,9.07
2023-06-27T20:37:16.111Z,8.80
2023-06-27T20:39:42.942Z,9.30
2023-06-27T20:42:09.478Z,8.73
2023-06-27T20:44:35.973Z,9.52
2023-06-27T20:47:02.463Z,9.63
2023-06-27T20:49:28.953Z,9.15
2023-06-27T20:51:55.472Z,9.32
2023-06-27T20:54:21.949Z,8.40
2023-06-27T20:56:48.517Z,9.23
2023-06-27T20:59:14.963Z,8.95
2023-06-27T21:01:41.643Z,9.00
2023-06-27T21:04:08.416Z,9.10
2023-06-27T21:06:34.948Z,9.15
2023-06-27T21:09:01.407Z,9.35
2023-06-27T21:11:27.916Z,9.85
2023-06-27T21:13:54.334Z,9.52
2023-06-27T21:16:20.867Z,9.65
2023-06-27T21:18:47.466Z,8.95
2023-06-27T21:21:14.005Z,9.25
2023-06-27T21:23:40.631Z,9.13
2023-06-27T21:26:07.293Z,8.60
2023-06-27T21:28:33.858Z,9.38
2023-06-27T21:31:02.800Z,9.13
2023-06-27T21:33:30.957Z,9.52
2023-06-27T21:35:57.883Z,9.30
2023-06-27T21:38:24.532Z,9.50
2023-06-27T21:40:50.980Z,8.38
2023-06-27T21:43:17.452Z,9.73
2023-06-27T21:45:43.951Z,9.70
2023-06-27T21:48:10.610Z,8.88
2023-06-27T21:50:38.665Z,8.90
2023-06-27T21:53:05.550Z,9.32
2023-06-27T21:55:32.204Z,10.05
2023-06-27T21:57:58.829Z,9.23
2023-06-27T22:00:25.833Z,10.02
2023-06-27T22:02:52.610Z,9.98
2023-06-27T22:05:20.524Z,10.07
2023-06-27T22:07:51.452Z,9.35
2023-06-27T22:10:19.025Z,10.02
2023-06-27T22:12:46.388Z,9.27
2023-06-27T22:15:13.370Z,9.85
2023-06-27T22:17:40.114Z,9.30
2023-06-27T22:20:08.624Z,9.90
2023-06-27T22:22:35.777Z,9.75
2023-06-27T22:25:03.460Z,8.90
2023-06-27T22:27:30.497Z,9.73
2023-06-27T22:29:57.002Z,9.48
2023-06-27T22:32:23.481Z,10.32
2023-06-27T22:34:50.673Z,8.95
2023-06-27T22:37:17.142Z,9.70
2023-06-27T22:39:43.641Z,10.15
2023-06-27T22:42:10.358Z,10.25
2023-06-27T22:44:36.925Z,10.23
2023-06-27T22:47:03.724Z,9.90
2023-06-27T22:49:30.171Z,9.82
2023-06-27T22:51:56.725Z,10.48
2023-06-27T22:54:23.271Z,10.82
2023-06-27T22:56:49.941Z,10.10
2023-06-27T22:59:16.422Z,9.57
2023-06-27T23:01:42.955Z,9.60
2023-06-27T23:04:09.385Z,10.30
2023-06-27T23:06:35.843Z,10.27
2023-06-27T23:09:02.312Z,10.20
2023-06-27T23:11:31.880Z,10.23
2023-06-27T23:13:59.013Z,9.75
2023-06-27T23:16:26.984Z,9.85
2023-06-27T23:18:58.577Z,10.02
2023-06-27T23:21:26.249Z,10.35
2023-06-27T23:23:56.032Z,9.60
2023-06-27T23:26:23.144Z,10.35
2023-06-27T23:28:51.380Z,10.38
2023-06-27T23:31:20.905Z,9.75
2023-06-27T23:33:47.697Z,10.30
2023-06-27T23:36:14.668Z,10.68
2023-06-27T23:38:41.174Z,10.40
2023-06-27T23:41:07.971Z,11.00
2023-06-27T23:43:34.419Z,10.32
2023-06-27T23:46:00.953Z,10.98
2023-06-27T23:48:27.758Z,10.60
2023-06-27T23:50:54.270Z,11.25
2023-06-27T23:53:20.782Z,11.52
2023-06-27T23:55:47.205Z,11.05
2023-06-27T23:58:13.820Z,11.40
